sensor_id;sensor_type;location;lat;lon;timestamp;pressure;altitude;pressure_sealevel;temperature;humidity
65280;BME280;51878;55.748;48.742;2023-07-08T00:04:30;99105.09;;;22.56;37.72
65280;BME280;51878;55.748;48.742;2023-07-08T00:09:32;99059.72;;;22.36;37.57
65280;BME280;51878;55.748;48.742;2023-07-08T00:14:34;99090.69;;;22.48;37.51
65280;BME280;51878;55.748;48.742;2023-07-08T00:19:37;99064.44;;;22.36;37.88
65280;BME280;51878;55.748;48.742;2023-07-08T00:24:41;99074.66;;;22.45;37.01
65280;BME280;51878;55.748;48.742;2023-07-08T00:29:43;99070.50;;;22.43;37.58
65280;BME280;51878;55.748;48.742;2023-07-08T00:34:45;99100.09;;;22.63;37.58
65280;BME280;51878;55.748;48.742;2023-07-08T00:39:48;99091.00;;;22.62;37.07
65280;BME280;51878;55.748;48.742;2023-07-08T00:44:50;99089.59;;;22.75;37.33
65280;BME280;51878;55.748;48.742;2023-07-08T00:49:57;99095.97;;;22.91;36.65
65280;BME280;51878;55.748;48.742;2023-07-08T00:55:09;99099.06;;;23.00;36.15
65280;BME280;51878;55.748;48.742;2023-07-08T01:00:15;99047.03;;;22.92;36.77
65280;BME280;51878;55.748;48.742;2023-07-08T01:05:23;99042.91;;;23.04;36.93
65280;BME280;51878;55.748;48.742;2023-07-08T01:10:30;99078.25;;;23.38;36.76
65280;BME280;51878;55.748;48.742;2023-07-08T01:15:42;99042.28;;;23.28;36.54
65280;BME280;51878;55.748;48.742;2023-07-08T01:20:45;99072.69;;;23.43;37.15
65280;BME280;51878;55.748;48.742;2023-07-08T01:25:49;99067.69;;;23.45;37.00
65280;BME280;51878;55.748;48.742;2023-07-08T01:30:52;99029.31;;;23.23;36.86
65280;BME280;51878;55.748;48.742;2023-07-08T01:35:54;99034.56;;;23.25;36.69
65280;BME280;51878;55.748;48.742;2023-07-08T01:40:58;99056.09;;;23.43;36.80
65280;BME280;51878;55.748;48.742;2023-07-08T01:46:01;99002.78;;;22.97;36.88
65280;BME280;51878;55.748;48.742;2023-07-08T01:51:05;99070.22;;;23.42;37.13
65280;BME280;51878;55.748;48.742;2023-07-08T01:56:10;99065.25;;;23.44;37.28
65280;BME280;51878;55.748;48.742;2023-07-08T02:01:13;99030.41;;;23.22;37.48
65280;BME280;51878;55.748;48.742;2023-07-08T02:06:15;99051.69;;;23.42;38.00
65280;BME280;51878;55.748;48.742;2023-07-08T02:11:17;99025.38;;;23.35;37.84
65280;BME280;51878;55.748;48.742;2023-07-08T02:16:20;99046.63;;;23.55;37.68
65280;BME280;51878;55.748;48.742;2023-07-08T02:21:22;99010.19;;;23.37;38.01
65280;BME280;51878;55.748;48.742;2023-07-08T02:26:24;99022.59;;;23.45;38.01
65280;BME280;51878;55.748;48.742;2023-07-08T02:31:27;99021.50;;;23.46;38.53
65280;BME280;51878;55.748;48.742;2023-07-08T02:36:29;99062.38;;;23.75;38.65
65280;BME280;51878;55.748;48.742;2023-07-08T02:41:31;99009.03;;;23.48;38.60
65280;BME280;51878;55.748;48.742;2023-07-08T02:46:36;99062.84;;;23.92;38.44
65280;BME280;51878;55.748;48.742;2023-07-08T02:51:39;99055.13;;;23.89;37.63
65280;BME280;51878;55.748;48.742;2023-07-08T02:56:41;99033.56;;;23.81;37.75
65280;BME280;51878;55.748;48.742;2023-07-08T03:01:43;99058.00;;;24.18;37.54
65280;BME280;51878;55.748;48.742;2023-07-08T03:06:50;98949.47;;;23.61;37.51
65280;BME280;51878;55.748;48.742;2023-07-08T03:11:52;99058.72;;;24.39;37.19
65280;BME280;51878;55.748;48.742;2023-07-08T03:16:57;99014.72;;;24.27;37.08
65280;BME280;51878;55.748;48.742;2023-07-08T03:22:02;99029.88;;;24.40;37.25
65280;BME280;51878;55.748;48.742;2023-07-08T03:27:07;99022.34;;;24.51;36.68
65280;BME280;51878;55.748;48.742;2023-07-08T03:32:12;99070.81;;;24.93;36.62
65280;BME280;51878;55.748;48.742;2023-07-08T03:37:17;99042.50;;;24.96;36.57
65280;BME280;51878;55.748;48.742;2023-07-08T03:42:19;99026.97;;;24.95;36.65
65280;BME280;51878;55.748;48.742;2023-07-08T03:47:22;99053.00;;;25.28;36.95
65280;BME280;51878;55.748;48.742;2023-07-08T03:52:24;98930.50;;;24.63;36.87
65280;BME280;51878;55.748;48.742;2023-07-08T03:57:26;98976.28;;;25.13;37.40
65280;BME280;51878;55.748;48.742;2023-07-08T04:02:29;99019.19;;;25.50;37.48
65280;BME280;51878;55.748;48.742;2023-07-08T04:07:32;99040.66;;;25.64;37.34
65280;BME280;51878;55.748;48.742;2023-07-08T04:12:34;99031.81;;;25.62;37.48
65280;BME280;51878;55.748;48.742;2023-07-08T04:17:41;99044.09;;;25.80;38.05
65280;BME280;51878;55.748;48.742;2023-07-08T04:22:45;99035.53;;;26.00;38.32
65280;BME280;51878;55.748;48.742;2023-07-08T04:27:48;99027.84;;;25.92;38.09
65280;BME280;51878;55.748;48.742;2023-07-08T04:32:51;98996.22;;;25.88;38.80
65280;BME280;51878;55.748;48.742;2023-07-08T04:37:53;99022.84;;;26.13;38.28
65280;BME280;51878;55.748;48.742;2023-07-08T04:42:56;99000.13;;;26.06;38.80
65280;BME280;51878;55.748;48.742;2023-07-08T04:48:01;99027.84;;;26.30;39.42
65280;BME280;51878;55.748;48.742;2023-07-08T04:53:11;98996.16;;;26.31;39.12
65280;BME280;51878;55.748;48.742;2023-07-08T04:58:14;98992.78;;;26.34;39.27
65280;BME280;51878;55.748;48.742;2023-07-08T05:03:16;99004.09;;;26.56;39.52
65280;BME280;51878;55.748;48.742;2023-07-08T05:08:18;98991.06;;;26.57;39.68
65280;BME280;51878;55.748;48.742;2023-07-08T05:13:20;99015.25;;;26.89;39.55
65280;BME280;51878;55.748;48.742;2023-07-08T05:18:24;99029.50;;;27.02;39.36
65280;BME280;51878;55.748;48.742;2023-07-08T05:23:26;98965.78;;;26.86;39.59
65280;BME280;51878;55.748;48.742;2023-07-08T05:28:29;99016.25;;;27.40;39.13
65280;BME280;51878;55.748;48.742;2023-07-08T05:33:32;98978.50;;;27.34;39.59
65280;BME280;51878;55.748;48.742;2023-07-08T05:38:34;98999.84;;;27.66;39.70
65280;BME280;51878;55.748;48.742;2023-07-08T05:43:37;99015.44;;;27.81;39.12
65280;BME280;51878;55.748;48.742;2023-07-08T05:48:39;98981.19;;;27.80;38.83
65280;BME280;51878;55.748;48.742;2023-07-08T05:53:41;98944.75;;;27.77;38.70
65280;BME280;51878;55.748;48.742;2023-07-08T05:58:44;98961.38;;;28.18;38.84
65280;BME280;51878;55.748;48.742;2023-07-08T06:03:47;98991.00;;;28.51;37.26
65280;BME280;51878;55.748;48.742;2023-07-08T06:08:49;98968.38;;;28.52;36.81
65280;BME280;51878;55.748;48.742;2023-07-08T06:13:51;98980.56;;;28.56;36.85
65280;BME280;51878;55.748;48.742;2023-07-08T06:19:01;98913.97;;;28.41;36.66
65280;BME280;51878;55.748;48.742;2023-07-08T06:24:03;98987.69;;;29.25;36.92
65280;BME280;51878;55.748;48.742;2023-07-08T06:29:06;98962.72;;;29.20;36.85
65280;BME280;51878;55.748;48.742;2023-07-08T06:34:08;98974.53;;;29.65;36.53
65280;BME280;51878;55.748;48.742;2023-07-08T06:39:11;98935.41;;;29.65;36.68
65280;BME280;51878;55.748;48.742;2023-07-08T06:44:13;98974.28;;;30.11;36.38
65280;BME280;51878;55.748;48.742;2023-07-08T06:49:15;98928.84;;;30.14;36.24
65280;BME280;51878;55.748;48.742;2023-07-08T06:54:19;98965.22;;;30.57;36.33
65280;BME280;51878;55.748;48.742;2023-07-08T06:59:21;98968.78;;;30.93;35.97
65280;BME280;51878;55.748;48.742;2023-07-08T07:04:23;98962.06;;;31.32;35.54
65280;BME280;51878;55.748;48.742;2023-07-08T07:09:25;98968.84;;;31.90;35.05
65280;BME280;51878;55.748;48.742;2023-07-08T07:14:28;98944.03;;;32.01;34.54
65280;BME280;51878;55.748;48.742;2023-07-08T07:19:51;98920.31;;;31.90;35.11
65280;BME280;51878;55.748;48.742;2023-07-08T07:24:53;98958.63;;;32.49;34.40
65280;BME280;51878;55.748;48.742;2023-07-08T07:29:56;98958.25;;;32.71;34.00
65280;BME280;51878;55.748;48.742;2023-07-08T07:35:01;98941.44;;;32.84;34.19
65280;BME280;51878;55.748;48.742;2023-07-08T07:40:09;98926.13;;;32.93;34.17
65280;BME280;51878;55.748;48.742;2023-07-08T07:45:16;98910.81;;;33.40;33.46
65280;BME280;51878;55.748;48.742;2023-07-08T07:50:18;98912.19;;;33.95;33.05
65280;BME280;51878;55.748;48.742;2023-07-08T07:55:21;98897.28;;;34.35;31.63
65280;BME280;51878;55.748;48.742;2023-07-08T08:00:23;98905.03;;;33.86;32.11
65280;BME280;51878;55.748;48.742;2023-07-08T08:05:25;98882.06;;;33.84;32.50
65280;BME280;51878;55.748;48.742;2023-07-08T08:10:27;98914.94;;;34.08;32.06
65280;BME280;51878;55.748;48.742;2023-07-08T08:15:30;98893.09;;;33.89;32.50
65280;BME280;51878;55.748;48.742;2023-07-08T08:20:32;98916.34;;;33.73;33.29
65280;BME280;51878;55.748;48.742;2023-07-08T08:25:35;98905.84;;;33.86;33.57
65280;BME280;51878;55.748;48.742;2023-07-08T08:30:37;98878.22;;;34.16;31.63
65280;BME280;51878;55.748;48.742;2023-07-08T08:35:39;98890.28;;;34.73;31.29
65280;BME280;51878;55.748;48.742;2023-07-08T08:40:43;98899.25;;;34.79;31.18
65280;BME280;51878;55.748;48.742;2023-07-08T08:51:14;98888.00;;;35.97;30.44
65280;BME280;51878;55.748;48.742;2023-07-08T08:56:24;98889.03;;;35.70;29.74
65280;BME280;51878;55.748;48.742;2023-07-08T09:01:27;98900.59;;;36.39;28.85
65280;BME280;51878;55.748;48.742;2023-07-08T09:06:32;98859.19;;;35.69;29.05
65280;BME280;51878;55.748;48.742;2023-07-08T09:11:44;98872.72;;;35.28;29.92
65280;BME280;51878;55.748;48.742;2023-07-08T09:27:42;98848.84;;;36.12;28.02
65280;BME280;51878;55.748;48.742;2023-07-08T09:32:46;98849.78;;;36.85;28.16
65280;BME280;51878;55.748;48.742;2023-07-08T09:37:49;98855.56;;;36.92;27.28
65280;BME280;51878;55.748;48.742;2023-07-08T09:42:53;98762.75;;;36.25;27.57
65280;BME280;51878;55.748;48.742;2023-07-08T09:47:57;98809.34;;;37.31;26.79
65280;BME280;51878;55.748;48.742;2023-07-08T09:53:00;98834.78;;;39.03;24.71
65280;BME280;51878;55.748;48.742;2023-07-08T09:58:03;98804.63;;;40.27;23.28
65280;BME280;51878;55.748;48.742;2023-07-08T10:03:26;98836.75;;;40.67;23.01
65280;BME280;51878;55.748;48.742;2023-07-08T10:08:44;98819.59;;;41.75;21.38
65280;BME280;51878;55.748;48.742;2023-07-08T10:13:52;98838.94;;;42.23;21.00
65280;BME280;51878;55.748;48.742;2023-07-08T10:19:15;98820.09;;;41.34;21.31
65280;BME280;51878;55.748;48.742;2023-07-08T10:29:56;98830.09;;;42.66;19.52
65280;BME280;51878;55.748;48.742;2023-07-08T10:35:18;98829.06;;;42.98;19.68
65280;BME280;51878;55.748;48.742;2023-07-08T10:46:22;98776.22;;;39.33;22.81
65280;BME280;51878;55.748;48.742;2023-07-08T11:13:09;98793.63;;;37.37;29.21
65280;BME280;51878;55.748;48.742;2023-07-08T11:18:38;98804.19;;;38.79;28.07
65280;BME280;51878;55.748;48.742;2023-07-08T11:24:09;98803.44;;;40.68;25.53
65280;BME280;51878;55.748;48.742;2023-07-08T11:29:37;98773.53;;;41.95;22.79
65280;BME280;51878;55.748;48.742;2023-07-08T11:34:44;98766.47;;;43.18;21.52
65280;BME280;51878;55.748;48.742;2023-07-08T11:39:55;98794.06;;;42.90;21.22
65280;BME280;51878;55.748;48.742;2023-07-08T11:44:59;98783.81;;;43.00;21.50
65280;BME280;51878;55.748;48.742;2023-07-08T11:50:35;98778.19;;;44.54;19.81
65280;BME280;51878;55.748;48.742;2023-07-08T11:55:58;98781.00;;;44.30;19.23
65280;BME280;51878;55.748;48.742;2023-07-08T12:01:22;98764.09;;;44.67;19.22
65280;BME280;51878;55.748;48.742;2023-07-08T12:11:35;98776.97;;;45.86;19.34
65280;BME280;51878;55.748;48.742;2023-07-08T12:16:37;98765.69;;;45.39;18.90
65280;BME280;51878;55.748;48.742;2023-07-08T12:21:41;98772.38;;;45.72;18.71
65280;BME280;51878;55.748;48.742;2023-07-08T12:26:43;98769.41;;;45.95;18.20
65280;BME280;51878;55.748;48.742;2023-07-08T12:31:45;98762.97;;;46.93;18.97
65280;BME280;51878;55.748;48.742;2023-07-08T12:36:48;98762.66;;;47.20;17.98
65280;BME280;51878;55.748;48.742;2023-07-08T12:41:50;98723.19;;;46.79;16.89
65280;BME280;51878;55.748;48.742;2023-07-08T12:46:54;98690.13;;;47.16;16.71
65280;BME280;51878;55.748;48.742;2023-07-08T12:51:57;98741.06;;;46.34;16.81
65280;BME280;51878;55.748;48.742;2023-07-08T12:56:59;98720.53;;;47.01;16.08
65280;BME280;51878;55.748;48.742;2023-07-08T13:02:02;98743.34;;;46.75;16.17
65280;BME280;51878;55.748;48.742;2023-07-08T13:07:04;98730.41;;;46.67;16.58
65280;BME280;51878;55.748;48.742;2023-07-08T13:12:20;98736.13;;;46.18;16.86
65280;BME280;51878;55.748;48.742;2023-07-08T13:17:26;98662.34;;;43.33;18.67
65280;BME280;51878;55.748;48.742;2023-07-08T13:22:29;98705.97;;;43.34;18.99
65280;BME280;51878;55.748;48.742;2023-07-08T13:27:32;98709.50;;;43.76;19.28
65280;BME280;51878;55.748;48.742;2023-07-08T13:32:37;98667.50;;;44.27;19.21
65280;BME280;51878;55.748;48.742;2023-07-08T13:37:39;98690.63;;;44.60;19.15
65280;BME280;51878;55.748;48.742;2023-07-08T13:42:49;98668.19;;;44.35;19.38
65280;BME280;51878;55.748;48.742;2023-07-08T13:48:01;98684.91;;;44.60;19.33
65280;BME280;51878;55.748;48.742;2023-07-08T13:53:15;98658.19;;;44.23;19.47
65280;BME280;51878;55.748;48.742;2023-07-08T13:58:18;98673.19;;;44.54;19.44
65280;BME280;51878;55.748;48.742;2023-07-08T14:03:20;98694.59;;;44.19;19.25
65280;BME280;51878;55.748;48.742;2023-07-08T14:08:29;98637.97;;;43.83;19.31
65280;BME280;51878;55.748;48.742;2023-07-08T14:13:31;98668.72;;;43.76;19.70
65280;BME280;51878;55.748;48.742;2023-07-08T14:18:34;98655.22;;;43.45;19.79
65280;BME280;51878;55.748;48.742;2023-07-08T14:23:36;98672.78;;;42.71;20.58
65280;BME280;51878;55.748;48.742;2023-07-08T14:28:40;98669.75;;;41.92;20.94
65280;BME280;51878;55.748;48.742;2023-07-08T14:33:42;98675.25;;;41.58;21.42
65280;BME280;51878;55.748;48.742;2023-07-08T14:38:45;98638.84;;;41.09;21.60
65280;BME280;51878;55.748;48.742;2023-07-08T14:43:48;98672.56;;;41.22;21.43
65280;BME280;51878;55.748;48.742;2023-07-08T14:48:52;98643.88;;;40.30;22.39
65280;BME280;51878;55.748;48.742;2023-07-08T14:53:57;98655.63;;;40.14;22.70
65280;BME280;51878;55.748;48.742;2023-07-08T14:58:59;98663.72;;;39.94;23.27
65280;BME280;51878;55.748;48.742;2023-07-08T15:04:09;98669.53;;;39.14;23.90
65280;BME280;51878;55.748;48.742;2023-07-08T15:09:12;98624.22;;;37.62;25.67
65280;BME280;51878;55.748;48.742;2023-07-08T15:14:24;98646.44;;;36.96;27.33
65280;BME280;51878;55.748;48.742;2023-07-08T15:19:30;98651.97;;;36.35;28.35
65280;BME280;51878;55.748;48.742;2023-07-08T15:24:35;98635.94;;;35.70;29.14
65280;BME280;51878;55.748;48.742;2023-07-08T15:29:40;98625.34;;;35.05;29.83
65280;BME280;51878;55.748;48.742;2023-07-08T15:34:42;98639.13;;;34.91;30.67
65280;BME280;51878;55.748;48.742;2023-07-08T15:39:45;98592.97;;;34.25;31.89
65280;BME280;51878;55.748;48.742;2023-07-08T15:44:48;98555.41;;;33.69;32.47
65280;BME280;51878;55.748;48.742;2023-07-08T15:49:54;98632.16;;;33.70;33.09
65280;BME280;51878;55.748;48.742;2023-07-08T15:54:56;98577.13;;;32.84;34.36
65280;BME280;51878;55.748;48.742;2023-07-08T16:00:01;98620.06;;;32.57;35.50
65280;BME280;51878;55.748;48.742;2023-07-08T16:05:08;98617.00;;;32.25;35.71
65280;BME280;51878;55.748;48.742;2023-07-08T16:10:14;98563.19;;;31.49;36.92
65280;BME280;51878;55.748;48.742;2023-07-08T16:15:30;98517.00;;;30.88;38.88
65280;BME280;51878;55.748;48.742;2023-07-08T16:20:32;98579.34;;;30.77;39.52
65280;BME280;51878;55.748;48.742;2023-07-08T16:25:37;98591.97;;;30.62;40.11
65280;BME280;51878;55.748;48.742;2023-07-08T16:30:43;98611.03;;;30.47;40.86
65280;BME280;51878;55.748;48.742;2023-07-08T16:35:45;98544.09;;;29.83;41.71
65280;BME280;51878;55.748;48.742;2023-07-08T16:40:48;98569.16;;;29.62;42.71
65280;BME280;51878;55.748;48.742;2023-07-08T16:45:53;98588.75;;;29.53;43.60
65280;BME280;51878;55.748;48.742;2023-07-08T16:50:55;98616.69;;;29.53;44.14
65280;BME280;51878;55.748;48.742;2023-07-08T16:55:58;98617.03;;;29.34;45.60
65280;BME280;51878;55.748;48.742;2023-07-08T17:01:00;98598.19;;;29.05;46.03
65280;BME280;51878;55.748;48.742;2023-07-08T17:06:03;98606.75;;;29.09;46.76
65280;BME280;51878;55.748;48.742;2023-07-08T17:11:08;98583.41;;;28.78;47.49
65280;BME280;51878;55.748;48.742;2023-07-08T17:16:22;98607.53;;;28.74;48.69
65280;BME280;51878;55.748;48.742;2023-07-08T17:21:26;98617.22;;;28.68;49.29
65280;BME280;51878;55.748;48.742;2023-07-08T17:26:28;98525.91;;;27.99;49.29
65280;BME280;51878;55.748;48.742;2023-07-08T17:31:31;98560.19;;;28.08;49.94
65280;BME280;51878;55.748;48.742;2023-07-08T17:36:50;98624.56;;;28.38;49.88
65280;BME280;51878;55.748;48.742;2023-07-08T17:41:53;98476.84;;;27.32;51.12
65280;BME280;51878;55.748;48.742;2023-07-08T17:47:00;98623.50;;;28.16;51.55
65280;BME280;51878;55.748;48.742;2023-07-08T17:52:03;98602.13;;;27.94;48.89
65280;BME280;51878;55.748;48.742;2023-07-08T17:57:05;98601.44;;;27.89;44.01
65280;BME280;51878;55.748;48.742;2023-07-08T18:02:16;98565.09;;;27.62;50.26
65280;BME280;51878;55.748;48.742;2023-07-08T18:07:19;98549.44;;;27.44;47.29
65280;BME280;51878;55.748;48.742;2023-07-08T18:12:21;98592.41;;;27.52;47.63
65280;BME280;51878;55.748;48.742;2023-07-08T18:17:26;98602.44;;;27.61;48.75
65280;BME280;51878;55.748;48.742;2023-07-08T18:22:28;98604.47;;;27.70;50.13
65280;BME280;51878;55.748;48.742;2023-07-08T18:27:31;98625.78;;;27.74;51.04
65280;BME280;51878;55.748;48.742;2023-07-08T18:32:34;98650.09;;;27.29;60.49
65280;BME280;51878;55.748;48.742;2023-07-08T18:37:36;98622.50;;;26.46;71.70
65280;BME280;51878;55.748;48.742;2023-07-08T18:42:39;98607.72;;;25.95;75.36
65280;BME280;51878;55.748;48.742;2023-07-08T18:47:45;98608.81;;;25.66;76.64
65280;BME280;51878;55.748;48.742;2023-07-08T18:52:47;98631.75;;;25.58;78.66
65280;BME280;51878;55.748;48.742;2023-07-08T18:57:54;98548.09;;;24.85;77.57
65280;BME280;51878;55.748;48.742;2023-07-08T19:02:58;98552.31;;;24.83;77.57
65280;BME280;51878;55.748;48.742;2023-07-08T19:08:01;98591.88;;;25.02;77.50
65280;BME280;51878;55.748;48.742;2023-07-08T19:13:18;98579.13;;;24.87;76.92
65280;BME280;51878;55.748;48.742;2023-07-08T19:18:21;98628.41;;;25.09;76.66
65280;BME280;51878;55.748;48.742;2023-07-08T19:23:25;98575.59;;;24.82;76.46
65280;BME280;51878;55.748;48.742;2023-07-08T19:28:28;98580.47;;;24.90;75.09
65280;BME280;51878;55.748;48.742;2023-07-08T19:33:32;98590.25;;;25.01;75.32
65280;BME280;51878;55.748;48.742;2023-07-08T19:38:38;98570.56;;;24.84;75.59
65280;BME280;51878;55.748;48.742;2023-07-08T19:43:40;98583.38;;;24.80;76.24
65280;BME280;51878;55.748;48.742;2023-07-08T19:48:43;98587.16;;;24.70;76.56
65280;BME280;51878;55.748;48.742;2023-07-08T19:53:46;98560.06;;;24.48;76.93
65280;BME280;51878;55.748;48.742;2023-07-08T19:58:50;98585.59;;;24.64;77.32
65280;BME280;51878;55.748;48.742;2023-07-08T20:03:53;98500.31;;;23.99;77.41
65280;BME280;51878;55.748;48.742;2023-07-08T20:08:56;98458.69;;;23.66;78.01
65280;BME280;51878;55.748;48.742;2023-07-08T20:13:59;98500.53;;;23.83;79.26
65280;BME280;51878;55.748;48.742;2023-07-08T20:19:02;98594.06;;;24.29;80.28
65280;BME280;51878;55.748;48.742;2023-07-08T20:24:04;98597.75;;;24.25;81.01
65280;BME280;51878;55.748;48.742;2023-07-08T20:29:14;98545.88;;;23.87;82.12
65280;BME280;51878;55.748;48.742;2023-07-08T20:34:24;98561.41;;;23.88;83.61
65280;BME280;51878;55.748;48.742;2023-07-08T20:39:28;98554.25;;;23.82;84.01
65280;BME280;51878;55.748;48.742;2023-07-08T20:44:33;98527.34;;;23.64;83.09
65280;BME280;51878;55.748;48.742;2023-07-08T20:49:37;98516.56;;;23.62;82.60
65280;BME280;51878;55.748;48.742;2023-07-08T20:54:39;98567.56;;;23.80;82.72
65280;BME280;51878;55.748;48.742;2023-07-08T20:59:42;98562.66;;;23.72;83.02
65280;BME280;51878;55.748;48.742;2023-07-08T21:04:51;98507.38;;;23.43;82.06
65280;BME280;51878;55.748;48.742;2023-07-08T21:09:53;98558.06;;;23.62;81.91
65280;BME280;51878;55.748;48.742;2023-07-08T21:14:55;98535.28;;;23.46;81.32
65280;BME280;51878;55.748;48.742;2023-07-08T21:19:58;98527.63;;;23.38;80.81
65280;BME280;51878;55.748;48.742;2023-07-08T21:25:00;98524.25;;;23.41;79.83
65280;BME280;51878;55.748;48.742;2023-07-08T21:30:16;98529.56;;;23.38;79.15
65280;BME280;51878;55.748;48.742;2023-07-08T21:35:24;98526.81;;;23.38;78.58
65280;BME280;51878;55.748;48.742;2023-07-08T21:45:38;98536.56;;;23.30;80.11
65280;BME280;51878;55.748;48.742;2023-07-08T21:50:52;98489.47;;;23.11;80.55
65280;BME280;51878;55.748;48.742;2023-07-08T21:55:57;98499.13;;;23.14;80.76
65280;BME280;51878;55.748;48.742;2023-07-08T22:00:59;98503.34;;;23.06;80.48
65280;BME280;51878;55.748;48.742;2023-07-08T22:06:01;98525.78;;;23.04;84.05
65280;BME280;51878;55.748;48.742;2023-07-08T22:11:18;98482.22;;;22.57;90.10
65280;BME280;51878;55.748;48.742;2023-07-08T22:16:23;98434.44;;;22.22;92.81
65280;BME280;51878;55.748;48.742;2023-07-08T22:21:29;98544.38;;;22.59;96.55
65280;BME280;51878;55.748;48.742;2023-07-08T22:26:34;98508.44;;;22.25;100.00
65280;BME280;51878;55.748;48.742;2023-07-08T22:31:41;98481.25;;;21.93;100.00
65280;BME280;51878;55.748;48.742;2023-07-08T22:36:46;98477.19;;;21.85;100.00
65280;BME280;51878;55.748;48.742;2023-07-08T22:41:51;98454.97;;;21.61;100.00
65280;BME280;51878;55.748;48.742;2023-07-08T22:46:54;98478.34;;;21.69;100.00
65280;BME280;51878;55.748;48.742;2023-07-08T22:51:57;98533.13;;;21.96;100.00
65280;BME280;51878;55.748;48.742;2023-07-08T22:56:59;98478.94;;;21.60;100.00
65280;BME280;51878;55.748;48.742;2023-07-08T23:02:02;98509.13;;;21.96;100.00
65280;BME280;51878;55.748;48.742;2023-07-08T23:07:05;98520.50;;;21.90;100.00
65280;BME280;51878;55.748;48.742;2023-07-08T23:12:09;98568.53;;;21.83;100.00
65280;BME280;51878;55.748;48.742;2023-07-08T23:17:12;98519.28;;;21.46;100.00
65280;BME280;51878;55.748;48.742;2023-07-08T23:22:19;98470.81;;;21.14;100.00
65280;BME280;51878;55.748;48.742;2023-07-08T23:27:22;98551.56;;;21.35;100.00
65280;BME280;51878;55.748;48.742;2023-07-08T23:32:25;98499.00;;;20.91;100.00
65280;BME280;51878;55.748;48.742;2023-07-08T23:37:28;98487.44;;;20.68;100.00
65280;BME280;51878;55.748;48.742;2023-07-08T23:42:31;98497.06;;;20.66;100.00
65280;BME280;51878;55.748;48.742;2023-07-08T23:47:36;98516.63;;;20.84;100.00
65280;BME280;51878;55.748;48.742;2023-07-08T23:52:38;98539.22;;;20.76;100.00
65280;BME280;51878;55.748;48.742;2023-07-08T23:57:41;98524.34;;;20.88;100.00
